sensor_id;sensor_type;location;lat;lon;timestamp;P1;durP1;ratioP1;P2;durP2;ratioP2
43146;SDS011;28752;48.266;7.402;2023-09-18T00:01:32;7.35;;;2.88;;
43146;SDS011;28752;48.266;7.402;2023-09-18T00:03:57;6.53;;;3.00;;
43146;SDS011;28752;48.266;7.402;2023-09-18T00:06:23;8.75;;;3.00;;
43146;SDS011;28752;48.266;7.402;2023-09-18T00:08:50;7.97;;;3.08;;
43146;SDS011;28752;48.266;7.402;2023-09-18T00:11:16;7.13;;;2.60;;
43146;SDS011;28752;48.266;7.402;2023-09-18T00:13:41;7.53;;;2.75;;
43146;SDS011;28752;48.266;7.402;2023-09-18T00:16:06;6.80;;;3.03;;
43146;SDS011;28752;48.266;7.402;2023-09-18T00:18:32;8.10;;;3.00;;
43146;SDS011;28752;48.266;7.402;2023-09-18T00:20:57;8.77;;;3.20;;
43146;SDS011;28752;48.266;7.402;2023-09-18T00:23:23;9.93;;;3.67;;
43146;SDS011;28752;48.266;7.402;2023-09-18T00:25:48;7.70;;;3.10;;
43146;SDS011;28752;48.266;7.402;2023-09-18T00:28:14;7.40;;;2.80;;
43146;SDS011;28752;48.266;7.402;2023-09-18T00:30:46;7.43;;;3.20;;
43146;SDS011;28752;48.266;7.402;2023-09-18T00:33:13;6.70;;;3.17;;
43146;SDS011;28752;48.266;7.402;2023-09-18T00:35:38;7.83;;;3.17;;
43146;SDS011;28752;48.266;7.402;2023-09-18T00:38:03;8.70;;;3.10;;
43146;SDS011;28752;48.266;7.402;2023-09-18T00:40:29;7.53;;;3.13;;
43146;SDS011;28752;48.266;7.402;2023-09-18T00:42:55;7.97;;;3.40;;
43146;SDS011;28752;48.266;7.402;2023-09-18T00:45:20;7.57;;;3.00;;
43146;SDS011;28752;48.266;7.402;2023-09-18T00:47:45;6.77;;;3.00;;
43146;SDS011;28752;48.266;7.402;2023-09-18T00:50:11;9.18;;;2.97;;
43146;SDS011;28752;48.266;7.402;2023-09-18T00:52:40;7.47;;;3.00;;
43146;SDS011;28752;48.266;7.402;2023-09-18T00:55:10;8.98;;;3.45;;
43146;SDS011;28752;48.266;7.402;2023-09-18T00:57:46;6.13;;;2.95;;
43146;SDS011;28752;48.266;7.402;2023-09-18T01:00:12;8.75;;;3.33;;
43146;SDS011;28752;48.266;7.402;2023-09-18T01:03:00;6.90;;;2.72;;
43146;SDS011;28752;48.266;7.402;2023-09-18T01:05:31;7.88;;;3.30;;
43146;SDS011;28752;48.266;7.402;2023-09-18T01:07:58;7.53;;;2.90;;
43146;SDS011;28752;48.266;7.402;2023-09-18T01:10:23;8.63;;;3.17;;
43146;SDS011;28752;48.266;7.402;2023-09-18T01:12:55;22.15;;;5.15;;
43146;SDS011;28752;48.266;7.402;2023-09-18T01:15:27;10.48;;;3.97;;
43146;SDS011;28752;48.266;7.402;2023-09-18T01:17:57;12.30;;;3.83;;
43146;SDS011;28752;48.266;7.402;2023-09-18T01:20:23;9.50;;;3.90;;
43146;SDS011;28752;48.266;7.402;2023-09-18T01:22:48;9.40;;;4.00;;
43146;SDS011;28752;48.266;7.402;2023-09-18T01:25:16;6.65;;;3.35;;
43146;SDS011;28752;48.266;7.402;2023-09-18T01:27:41;9.63;;;4.00;;
43146;SDS011;28752;48.266;7.402;2023-09-18T01:30:07;14.13;;;4.20;;
43146;SDS011;28752;48.266;7.402;2023-09-18T01:32:32;14.95;;;4.40;;
43146;SDS011;28752;48.266;7.402;2023-09-18T01:35:01;9.63;;;4.25;;
43146;SDS011;28752;48.266;7.402;2023-09-18T01:37:30;10.48;;;4.00;;
43146;SDS011;28752;48.266;7.402;2023-09-18T01:39:56;8.93;;;4.25;;
43146;SDS011;28752;48.266;7.402;2023-09-18T01:42:24;10.65;;;4.20;;
43146;SDS011;28752;48.266;7.402;2023-09-18T01:47:17;10.18;;;4.72;;
43146;SDS011;28752;48.266;7.402;2023-09-18T01:49:44;12.13;;;4.85;;
43146;SDS011;28752;48.266;7.402;2023-09-18T01:52:11;13.32;;;4.80;;
43146;SDS011;28752;48.266;7.402;2023-09-18T01:54:37;15.35;;;4.68;;
43146;SDS011;28752;48.266;7.402;2023-09-18T01:57:02;14.93;;;4.68;;
43146;SDS011;28752;48.266;7.402;2023-09-18T01:59:28;13.77;;;4.53;;
43146;SDS011;28752;48.266;7.402;2023-09-18T02:01:54;13.63;;;4.68;;
43146;SDS011;28752;48.266;7.402;2023-09-18T02:04:20;14.68;;;4.97;;
43146;SDS011;28752;48.266;7.402;2023-09-18T02:06:47;11.93;;;4.50;;
43146;SDS011;28752;48.266;7.402;2023-09-18T02:09:15;11.98;;;4.43;;
43146;SDS011;28752;48.266;7.402;2023-09-18T02:11:41;12.57;;;4.75;;
43146;SDS011;28752;48.266;7.402;2023-09-18T02:14:08;15.32;;;5.32;;
43146;SDS011;28752;48.266;7.402;2023-09-18T02:19:06;14.23;;;5.15;;
43146;SDS011;28752;48.266;7.402;2023-09-18T02:21:32;15.20;;;4.70;;
43146;SDS011;28752;48.266;7.402;2023-09-18T02:24:00;19.50;;;5.87;;
43146;SDS011;28752;48.266;7.402;2023-09-18T02:26:29;13.07;;;4.85;;
43146;SDS011;28752;48.266;7.402;2023-09-18T02:29:00;15.18;;;5.35;;
43146;SDS011;28752;48.266;7.402;2023-09-18T02:31:29;15.43;;;4.95;;
43146;SDS011;28752;48.266;7.402;2023-09-18T02:33:55;17.23;;;5.07;;
43146;SDS011;28752;48.266;7.402;2023-09-18T02:36:21;15.90;;;5.07;;
43146;SDS011;28752;48.266;7.402;2023-09-18T02:38:50;17.75;;;5.03;;
43146;SDS011;28752;48.266;7.402;2023-09-18T02:41:19;15.80;;;4.53;;
43146;SDS011;28752;48.266;7.402;2023-09-18T02:43:45;14.57;;;4.18;;
43146;SDS011;28752;48.266;7.402;2023-09-18T02:46:13;13.50;;;4.75;;
43146;SDS011;28752;48.266;7.402;2023-09-18T02:48:39;11.25;;;3.88;;
43146;SDS011;28752;48.266;7.402;2023-09-18T02:51:18;11.82;;;5.18;;
43146;SDS011;28752;48.266;7.402;2023-09-18T02:53:47;13.75;;;4.50;;
43146;SDS011;28752;48.266;7.402;2023-09-18T02:56:13;11.20;;;4.55;;
43146;SDS011;28752;48.266;7.402;2023-09-18T02:58:39;10.70;;;4.63;;
43146;SDS011;28752;48.266;7.402;2023-09-18T03:01:06;13.48;;;4.82;;
43146;SDS011;28752;48.266;7.402;2023-09-18T03:03:32;13.75;;;5.25;;
43146;SDS011;28752;48.266;7.402;2023-09-18T03:06:01;12.00;;;5.30;;
43146;SDS011;28752;48.266;7.402;2023-09-18T03:08:28;12.27;;;4.80;;
43146;SDS011;28752;48.266;7.402;2023-09-18T03:10:53;14.35;;;4.95;;
43146;SDS011;28752;48.266;7.402;2023-09-18T03:13:19;12.97;;;5.13;;
43146;SDS011;28752;48.266;7.402;2023-09-18T03:15:45;16.77;;;5.07;;
43146;SDS011;28752;48.266;7.402;2023-09-18T03:18:12;12.63;;;5.03;;
43146;SDS011;28752;48.266;7.402;2023-09-18T03:20:37;14.50;;;5.20;;
43146;SDS011;28752;48.266;7.402;2023-09-18T03:23:03;15.45;;;4.90;;
43146;SDS011;28752;48.266;7.402;2023-09-18T03:25:28;13.90;;;5.03;;
43146;SDS011;28752;48.266;7.402;2023-09-18T03:27:54;16.85;;;6.00;;
43146;SDS011;28752;48.266;7.402;2023-09-18T03:30:22;11.48;;;4.35;;
43146;SDS011;28752;48.266;7.402;2023-09-18T03:32:51;14.35;;;5.88;;
43146;SDS011;28752;48.266;7.402;2023-09-18T03:35:17;18.95;;;5.65;;
43146;SDS011;28752;48.266;7.402;2023-09-18T03:37:47;14.00;;;4.85;;
43146;SDS011;28752;48.266;7.402;2023-09-18T03:40:15;14.80;;;5.25;;
43146;SDS011;28752;48.266;7.402;2023-09-18T03:42:41;16.63;;;5.60;;
43146;SDS011;28752;48.266;7.402;2023-09-18T03:45:07;15.63;;;5.67;;
43146;SDS011;28752;48.266;7.402;2023-09-18T03:47:37;14.15;;;5.32;;
43146;SDS011;28752;48.266;7.402;2023-09-18T03:50:04;17.35;;;5.30;;
43146;SDS011;28752;48.266;7.402;2023-09-18T03:52:31;17.02;;;5.30;;
43146;SDS011;28752;48.266;7.402;2023-09-18T03:54:56;19.97;;;5.73;;
43146;SDS011;28752;48.266;7.402;2023-09-18T03:57:21;15.43;;;4.90;;
43146;SDS011;28752;48.266;7.402;2023-09-18T03:59:47;15.27;;;4.77;;
43146;SDS011;28752;48.266;7.402;2023-09-18T04:02:12;11.23;;;4.70;;
43146;SDS011;28752;48.266;7.402;2023-09-18T04:04:37;14.43;;;4.50;;
43146;SDS011;28752;48.266;7.402;2023-09-18T04:07:06;12.45;;;4.75;;
43146;SDS011;28752;48.266;7.402;2023-09-18T04:09:31;14.93;;;5.05;;
43146;SDS011;28752;48.266;7.402;2023-09-18T04:11:57;14.70;;;4.20;;
43146;SDS011;28752;48.266;7.402;2023-09-18T04:14:23;19.50;;;4.90;;
43146;SDS011;28752;48.266;7.402;2023-09-18T04:16:48;17.77;;;5.40;;
43146;SDS011;28752;48.266;7.402;2023-09-18T04:19:13;13.17;;;4.33;;
43146;SDS011;28752;48.266;7.402;2023-09-18T04:21:39;15.23;;;5.37;;
43146;SDS011;28752;48.266;7.402;2023-09-18T04:24:04;15.00;;;4.97;;
43146;SDS011;28752;48.266;7.402;2023-09-18T04:26:30;13.35;;;4.10;;
43146;SDS011;28752;48.266;7.402;2023-09-18T04:29:01;13.00;;;4.35;;
43146;SDS011;28752;48.266;7.402;2023-09-18T04:31:27;14.68;;;4.75;;
43146;SDS011;28752;48.266;7.402;2023-09-18T04:33:53;14.13;;;4.55;;
43146;SDS011;28752;48.266;7.402;2023-09-18T04:36:19;12.65;;;4.75;;
43146;SDS011;28752;48.266;7.402;2023-09-18T04:38:44;13.50;;;4.88;;
43146;SDS011;28752;48.266;7.402;2023-09-18T04:41:10;12.57;;;4.33;;
43146;SDS011;28752;48.266;7.402;2023-09-18T04:43:39;10.40;;;4.10;;
43146;SDS011;28752;48.266;7.402;2023-09-18T04:46:05;9.55;;;4.22;;
43146;SDS011;28752;48.266;7.402;2023-09-18T04:48:31;15.63;;;4.10;;
43146;SDS011;28752;48.266;7.402;2023-09-18T04:50:57;13.60;;;3.97;;
43146;SDS011;28752;48.266;7.402;2023-09-18T04:53:23;11.52;;;4.68;;
43146;SDS011;28752;48.266;7.402;2023-09-18T04:55:48;13.03;;;4.57;;
43146;SDS011;28752;48.266;7.402;2023-09-18T04:58:15;12.68;;;4.57;;
43146;SDS011;28752;48.266;7.402;2023-09-18T05:00:41;13.52;;;4.50;;
43146;SDS011;28752;48.266;7.402;2023-09-18T05:03:06;12.30;;;4.70;;
43146;SDS011;28752;48.266;7.402;2023-09-18T05:05:33;10.10;;;4.35;;
43146;SDS011;28752;48.266;7.402;2023-09-18T05:07:59;12.23;;;4.75;;
43146;SDS011;28752;48.266;7.402;2023-09-18T05:10:25;15.95;;;4.50;;
43146;SDS011;28752;48.266;7.402;2023-09-18T05:12:51;12.57;;;4.40;;
43146;SDS011;28752;48.266;7.402;2023-09-18T05:15:23;14.98;;;4.60;;
43146;SDS011;28752;48.266;7.402;2023-09-18T05:17:50;10.95;;;4.07;;
43146;SDS011;28752;48.266;7.402;2023-09-18T05:20:17;13.57;;;4.38;;
43146;SDS011;28752;48.266;7.402;2023-09-18T05:22:43;13.00;;;4.20;;
43146;SDS011;28752;48.266;7.402;2023-09-18T05:25:09;12.15;;;4.35;;
43146;SDS011;28752;48.266;7.402;2023-09-18T05:27:39;12.27;;;4.45;;
43146;SDS011;28752;48.266;7.402;2023-09-18T05:30:09;12.50;;;4.40;;
43146;SDS011;28752;48.266;7.402;2023-09-18T05:32:40;10.15;;;4.20;;
43146;SDS011;28752;48.266;7.402;2023-09-18T05:37:32;14.32;;;4.30;;
43146;SDS011;28752;48.266;7.402;2023-09-18T05:39:57;8.32;;;3.63;;
43146;SDS011;28752;48.266;7.402;2023-09-18T05:42:23;9.75;;;4.13;;
43146;SDS011;28752;48.266;7.402;2023-09-18T05:44:55;10.13;;;3.00;;
43146;SDS011;28752;48.266;7.402;2023-09-18T05:47:21;13.55;;;3.40;;
43146;SDS011;28752;48.266;7.402;2023-09-18T05:49:47;14.60;;;3.40;;
43146;SDS011;28752;48.266;7.402;2023-09-18T05:52:12;9.83;;;2.80;;
43146;SDS011;28752;48.266;7.402;2023-09-18T05:54:37;7.97;;;3.10;;
43146;SDS011;28752;48.266;7.402;2023-09-18T05:57:03;8.73;;;3.00;;
43146;SDS011;28752;48.266;7.402;2023-09-18T05:59:28;8.13;;;2.83;;
43146;SDS011;28752;48.266;7.402;2023-09-18T06:01:54;10.53;;;3.20;;
43146;SDS011;28752;48.266;7.402;2023-09-18T06:04:19;15.13;;;3.60;;
43146;SDS011;28752;48.266;7.402;2023-09-18T06:06:44;10.20;;;3.13;;
43146;SDS011;28752;48.266;7.402;2023-09-18T06:09:11;10.55;;;3.35;;
43146;SDS011;28752;48.266;7.402;2023-09-18T06:11:36;6.85;;;3.00;;
43146;SDS011;28752;48.266;7.402;2023-09-18T06:14:02;6.37;;;2.77;;
43146;SDS011;28752;48.266;7.402;2023-09-18T06:16:27;5.73;;;2.50;;
43146;SDS011;28752;48.266;7.402;2023-09-18T06:18:52;6.13;;;2.40;;
43146;SDS011;28752;48.266;7.402;2023-09-18T06:21:20;7.50;;;2.40;;
43146;SDS011;28752;48.266;7.402;2023-09-18T06:23:46;7.50;;;2.57;;
43146;SDS011;28752;48.266;7.402;2023-09-18T06:26:11;8.53;;;2.80;;
43146;SDS011;28752;48.266;7.402;2023-09-18T06:28:37;8.88;;;2.33;;
43146;SDS011;28752;48.266;7.402;2023-09-18T06:31:03;7.72;;;2.33;;
43146;SDS011;28752;48.266;7.402;2023-09-18T06:33:28;8.20;;;2.30;;
43146;SDS011;28752;48.266;7.402;2023-09-18T06:35:54;7.80;;;2.40;;
43146;SDS011;28752;48.266;7.402;2023-09-18T06:38:19;7.77;;;2.50;;
43146;SDS011;28752;48.266;7.402;2023-09-18T06:40:45;6.90;;;1.90;;
43146;SDS011;28752;48.266;7.402;2023-09-18T06:43:11;5.93;;;2.15;;
43146;SDS011;28752;48.266;7.402;2023-09-18T06:45:36;4.67;;;1.60;;
43146;SDS011;28752;48.266;7.402;2023-09-18T06:48:03;5.82;;;1.73;;
43146;SDS011;28752;48.266;7.402;2023-09-18T06:52:55;4.95;;;1.70;;
43146;SDS011;28752;48.266;7.402;2023-09-18T06:55:20;6.47;;;2.00;;
43146;SDS011;28752;48.266;7.402;2023-09-18T06:57:46;7.37;;;2.00;;
43146;SDS011;28752;48.266;7.402;2023-09-18T07:00:12;7.35;;;2.40;;
43146;SDS011;28752;48.266;7.402;2023-09-18T07:02:39;7.13;;;2.00;;
43146;SDS011;28752;48.266;7.402;2023-09-18T07:05:05;8.07;;;2.27;;
43146;SDS011;28752;48.266;7.402;2023-09-18T07:07:31;5.80;;;1.90;;
43146;SDS011;28752;48.266;7.402;2023-09-18T07:09:57;9.85;;;2.60;;
43146;SDS011;28752;48.266;7.402;2023-09-18T07:12:23;5.90;;;1.92;;
43146;SDS011;28752;48.266;7.402;2023-09-18T07:14:49;7.55;;;2.42;;
43146;SDS011;28752;48.266;7.402;2023-09-18T07:17:14;8.68;;;2.28;;
43146;SDS011;28752;48.266;7.402;2023-09-18T07:19:40;7.75;;;1.90;;
43146;SDS011;28752;48.266;7.402;2023-09-18T07:22:05;7.18;;;2.17;;
43146;SDS011;28752;48.266;7.402;2023-09-18T07:24:31;6.10;;;1.90;;
43146;SDS011;28752;48.266;7.402;2023-09-18T07:26:56;5.67;;;2.00;;
43146;SDS011;28752;48.266;7.402;2023-09-18T07:29:23;6.60;;;2.00;;
43146;SDS011;28752;48.266;7.402;2023-09-18T07:31:50;7.28;;;2.30;;
43146;SDS011;28752;48.266;7.402;2023-09-18T07:34:15;8.07;;;2.55;;
43146;SDS011;28752;48.266;7.402;2023-09-18T07:36:42;7.05;;;2.25;;
43146;SDS011;28752;48.266;7.402;2023-09-18T07:39:09;6.80;;;2.20;;
43146;SDS011;28752;48.266;7.402;2023-09-18T07:41:34;6.00;;;2.10;;
43146;SDS011;28752;48.266;7.402;2023-09-18T07:43:59;4.77;;;2.10;;
43146;SDS011;28752;48.266;7.402;2023-09-18T07:46:25;7.35;;;2.30;;
43146;SDS011;28752;48.266;7.402;2023-09-18T07:48:50;7.38;;;2.63;;
43146;SDS011;28752;48.266;7.402;2023-09-18T07:51:16;9.37;;;2.47;;
43146;SDS011;28752;48.266;7.402;2023-09-18T07:53:41;7.27;;;2.33;;
43146;SDS011;28752;48.266;7.402;2023-09-18T07:56:07;9.27;;;2.70;;
43146;SDS011;28752;48.266;7.402;2023-09-18T07:58:33;7.57;;;2.30;;
43146;SDS011;28752;48.266;7.402;2023-09-18T08:01:03;7.40;;;2.85;;
43146;SDS011;28752;48.266;7.402;2023-09-18T08:03:30;6.95;;;2.10;;
43146;SDS011;28752;48.266;7.402;2023-09-18T08:05:56;7.25;;;2.40;;
43146;SDS011;28752;48.266;7.402;2023-09-18T08:08:22;6.32;;;2.53;;
43146;SDS011;28752;48.266;7.402;2023-09-18T08:10:49;8.00;;;2.28;;
43146;SDS011;28752;48.266;7.402;2023-09-18T08:13:15;6.38;;;2.30;;
43146;SDS011;28752;48.266;7.402;2023-09-18T08:18:06;7.32;;;2.40;;
43146;SDS011;28752;48.266;7.402;2023-09-18T08:20:31;9.50;;;2.77;;
43146;SDS011;28752;48.266;7.402;2023-09-18T08:22:58;8.05;;;2.40;;
43146;SDS011;28752;48.266;7.402;2023-09-18T08:25:26;6.88;;;2.63;;
43146;SDS011;28752;48.266;7.402;2023-09-18T08:27:52;5.60;;;2.50;;
43146;SDS011;28752;48.266;7.402;2023-09-18T08:30:17;8.40;;;2.75;;
43146;SDS011;28752;48.266;7.402;2023-09-18T08:32:45;6.85;;;2.35;;
43146;SDS011;28752;48.266;7.402;2023-09-18T08:35:12;7.22;;;2.83;;
43146;SDS011;28752;48.266;7.402;2023-09-18T08:37:37;10.77;;;3.40;;
43146;SDS011;28752;48.266;7.402;2023-09-18T08:40:03;6.90;;;2.83;;
43146;SDS011;28752;48.266;7.402;2023-09-18T08:42:35;10.43;;;3.50;;
43146;SDS011;28752;48.266;7.402;2023-09-18T08:45:05;9.15;;;3.08;;
43146;SDS011;28752;48.266;7.402;2023-09-18T08:47:32;7.68;;;2.90;;
43146;SDS011;28752;48.266;7.402;2023-09-18T08:49:58;7.65;;;2.85;;
43146;SDS011;28752;48.266;7.402;2023-09-18T08:52:26;10.32;;;2.60;;
43146;SDS011;28752;48.266;7.402;2023-09-18T08:54:52;5.88;;;2.33;;
43146;SDS011;28752;48.266;7.402;2023-09-18T08:57:19;8.07;;;2.75;;
43146;SDS011;28752;48.266;7.402;2023-09-18T09:02:11;8.10;;;2.33;;
43146;SDS011;28752;48.266;7.402;2023-09-18T09:04:38;7.83;;;2.93;;
43146;SDS011;28752;48.266;7.402;2023-09-18T09:07:03;7.00;;;2.50;;
43146;SDS011;28752;48.266;7.402;2023-09-18T09:09:29;7.43;;;2.65;;
43146;SDS011;28752;48.266;7.402;2023-09-18T09:11:56;8.45;;;2.58;;
43146;SDS011;28752;48.266;7.402;2023-09-18T09:14:21;8.95;;;2.30;;
43146;SDS011;28752;48.266;7.402;2023-09-18T09:16:52;5.28;;;2.25;;
43146;SDS011;28752;48.266;7.402;2023-09-18T09:19:18;6.95;;;2.45;;
43146;SDS011;28752;48.266;7.402;2023-09-18T09:21:55;10.23;;;2.45;;
43146;SDS011;28752;48.266;7.402;2023-09-18T09:24:43;7.15;;;2.40;;
43146;SDS011;28752;48.266;7.402;2023-09-18T09:27:09;6.00;;;1.92;;
43146;SDS011;28752;48.266;7.402;2023-09-18T09:29:35;7.80;;;2.20;;
43146;SDS011;28752;48.266;7.402;2023-09-18T09:32:17;6.82;;;2.10;;
43146;SDS011;28752;48.266;7.402;2023-09-18T09:34:44;6.50;;;2.13;;
43146;SDS011;28752;48.266;7.402;2023-09-18T09:37:11;6.97;;;2.22;;
43146;SDS011;28752;48.266;7.402;2023-09-18T09:39:51;7.68;;;1.98;;
43146;SDS011;28752;48.266;7.402;2023-09-18T09:42:17;6.47;;;2.25;;
43146;SDS011;28752;48.266;7.402;2023-09-18T09:44:55;8.13;;;2.40;;
43146;SDS011;28752;48.266;7.402;2023-09-18T09:47:25;6.40;;;2.15;;
43146;SDS011;28752;48.266;7.402;2023-09-18T09:49:51;7.33;;;2.03;;
43146;SDS011;28752;48.266;7.402;2023-09-18T09:52:19;6.23;;;2.30;;
43146;SDS011;28752;48.266;7.402;2023-09-18T09:54:47;6.32;;;1.90;;
43146;SDS011;28752;48.266;7.402;2023-09-18T09:57:12;6.30;;;1.93;;
43146;SDS011;28752;48.266;7.402;2023-09-18T09:59:39;7.70;;;1.65;;
43146;SDS011;28752;48.266;7.402;2023-09-18T10:02:10;7.72;;;2.38;;
43146;SDS011;28752;48.266;7.402;2023-09-18T10:04:39;4.97;;;1.77;;
43146;SDS011;28752;48.266;7.402;2023-09-18T10:07:06;5.65;;;2.00;;
43146;SDS011;28752;48.266;7.402;2023-09-18T10:09:34;7.10;;;2.00;;
43146;SDS011;28752;48.266;7.402;2023-09-18T10:12:00;6.47;;;2.25;;
43146;SDS011;28752;48.266;7.402;2023-09-18T10:14:31;5.60;;;1.77;;
43146;SDS011;28752;48.266;7.402;2023-09-18T10:16:59;6.90;;;2.05;;
43146;SDS011;28752;48.266;7.402;2023-09-18T10:19:59;7.18;;;1.75;;
43146;SDS011;28752;48.266;7.402;2023-09-18T10:22:44;5.88;;;1.75;;
43146;SDS011;28752;48.266;7.402;2023-09-18T10:27:43;5.22;;;1.90;;
43146;SDS011;28752;48.266;7.402;2023-09-18T10:30:13;7.10;;;2.00;;
43146;SDS011;28752;48.266;7.402;2023-09-18T10:32:39;8.40;;;2.05;;
43146;SDS011;28752;48.266;7.402;2023-09-18T10:35:06;5.45;;;1.58;;
43146;SDS011;28752;48.266;7.402;2023-09-18T10:37:33;6.13;;;1.95;;
43146;SDS011;28752;48.266;7.402;2023-09-18T10:40:01;6.40;;;1.73;;
43146;SDS011;28752;48.266;7.402;2023-09-18T10:42:27;5.13;;;1.75;;
43146;SDS011;28752;48.266;7.402;2023-09-18T10:44:55;7.35;;;1.92;;
43146;SDS011;28752;48.266;7.402;2023-09-18T10:47:21;7.30;;;1.92;;
43146;SDS011;28752;48.266;7.402;2023-09-18T10:49:47;6.43;;;1.70;;
43146;SDS011;28752;48.266;7.402;2023-09-18T10:52:15;8.45;;;1.63;;
43146;SDS011;28752;48.266;7.402;2023-09-18T10:54:40;4.55;;;1.50;;
43146;SDS011;28752;48.266;7.402;2023-09-18T10:57:05;7.18;;;1.67;;
43146;SDS011;28752;48.266;7.402;2023-09-18T11:18:52;6.63;;;1.67;;
43146;SDS011;28752;48.266;7.402;2023-09-18T11:21:23;6.53;;;1.70;;
43146;SDS011;28752;48.266;7.402;2023-09-18T11:23:57;4.97;;;1.40;;
43146;SDS011;28752;48.266;7.402;2023-09-18T11:26:30;3.92;;;1.30;;
43146;SDS011;28752;48.266;7.402;2023-09-18T11:29:00;7.40;;;1.63;;
43146;SDS011;28752;48.266;7.402;2023-09-18T11:34:28;6.53;;;1.77;;
43146;SDS011;28752;48.266;7.402;2023-09-18T11:37:19;3.78;;;1.38;;
43146;SDS011;28752;48.266;7.402;2023-09-18T11:39:45;4.68;;;1.50;;
43146;SDS011;28752;48.266;7.402;2023-09-18T11:42:12;5.35;;;1.80;;
43146;SDS011;28752;48.266;7.402;2023-09-18T11:44:39;6.40;;;1.90;;
43146;SDS011;28752;48.266;7.402;2023-09-18T11:47:12;5.50;;;1.90;;
43146;SDS011;28752;48.266;7.402;2023-09-18T11:52:24;4.72;;;1.80;;
43146;SDS011;28752;48.266;7.402;2023-09-18T11:54:51;4.28;;;1.20;;
43146;SDS011;28752;48.266;7.402;2023-09-18T11:57:18;3.90;;;1.45;;
43146;SDS011;28752;48.266;7.402;2023-09-18T11:59:46;5.57;;;1.75;;
43146;SDS011;28752;48.266;7.402;2023-09-18T12:02:13;4.60;;;1.40;;
43146;SDS011;28752;48.266;7.402;2023-09-18T12:04:46;3.53;;;1.30;;
43146;SDS011;28752;48.266;7.402;2023-09-18T12:07:12;6.28;;;1.23;;
43146;SDS011;28752;48.266;7.402;2023-09-18T12:09:38;5.93;;;1.40;;
43146;SDS011;28752;48.266;7.402;2023-09-18T12:12:05;5.43;;;1.40;;
43146;SDS011;28752;48.266;7.402;2023-09-18T12:14:32;4.32;;;1.40;;
43146;SDS011;28752;48.266;7.402;2023-09-18T12:19:24;4.50;;;1.15;;
43146;SDS011;28752;48.266;7.402;2023-09-18T12:21:50;4.03;;;1.30;;
43146;SDS011;28752;48.266;7.402;2023-09-18T12:26:48;4.43;;;1.40;;
43146;SDS011;28752;48.266;7.402;2023-09-18T12:29:14;4.50;;;1.38;;
43146;SDS011;28752;48.266;7.402;2023-09-18T12:31:40;5.03;;;1.20;;
43146;SDS011;28752;48.266;7.402;2023-09-18T12:34:13;3.90;;;1.20;;
43146;SDS011;28752;48.266;7.402;2023-09-18T12:36:41;4.18;;;1.30;;
43146;SDS011;28752;48.266;7.402;2023-09-18T12:39:08;4.72;;;1.20;;
43146;SDS011;28752;48.266;7.402;2023-09-18T12:41:35;4.47;;;1.40;;
43146;SDS011;28752;48.266;7.402;2023-09-18T12:44:01;5.65;;;1.40;;
43146;SDS011;28752;48.266;7.402;2023-09-18T12:46:28;4.43;;;1.35;;
43146;SDS011;28752;48.266;7.402;2023-09-18T12:48:54;4.88;;;1.50;;
43146;SDS011;28752;48.266;7.402;2023-09-18T12:54:00;4.97;;;1.40;;
43146;SDS011;28752;48.266;7.402;2023-09-18T12:56:26;5.78;;;1.48;;
43146;SDS011;28752;48.266;7.402;2023-09-18T12:58:51;6.20;;;1.25;;
43146;SDS011;28752;48.266;7.402;2023-09-18T13:03:42;4.70;;;1.30;;
43146;SDS011;28752;48.266;7.402;2023-09-18T13:06:09;4.45;;;1.40;;
43146;SDS011;28752;48.266;7.402;2023-09-18T13:08:36;2.15;;;0.95;;
43146;SDS011;28752;48.266;7.402;2023-09-18T13:11:02;3.45;;;1.20;;
43146;SDS011;28752;48.266;7.402;2023-09-18T13:13:31;4.07;;;1.27;;
43146;SDS011;28752;48.266;7.402;2023-09-18T13:15:57;7.20;;;1.20;;
43146;SDS011;28752;48.266;7.402;2023-09-18T13:18:24;5.57;;;1.25;;
43146;SDS011;28752;48.266;7.402;2023-09-18T13:20:50;4.97;;;1.25;;
43146;SDS011;28752;48.266;7.402;2023-09-18T13:25:42;6.53;;;1.27;;
43146;SDS011;28752;48.266;7.402;2023-09-18T13:28:11;4.22;;;1.38;;
43146;SDS011;28752;48.266;7.402;2023-09-18T13:30:37;3.58;;;1.33;;
43146;SDS011;28752;48.266;7.402;2023-09-18T13:33:06;7.13;;;1.50;;
43146;SDS011;28752;48.266;7.402;2023-09-18T13:35:32;3.40;;;1.33;;
43146;SDS011;28752;48.266;7.402;2023-09-18T13:37:58;3.03;;;1.00;;
43146;SDS011;28752;48.266;7.402;2023-09-18T13:40:24;5.18;;;1.35;;
43146;SDS011;28752;48.266;7.402;2023-09-18T13:50:07;5.75;;;1.45;;
43146;SDS011;28752;48.266;7.402;2023-09-18T13:52:33;5.28;;;1.38;;
43146;SDS011;28752;48.266;7.402;2023-09-18T13:55:01;5.90;;;1.50;;
43146;SDS011;28752;48.266;7.402;2023-09-18T13:57:30;4.85;;;1.15;;
43146;SDS011;28752;48.266;7.402;2023-09-18T13:59:59;4.45;;;1.20;;
43146;SDS011;28752;48.266;7.402;2023-09-18T14:02:25;4.47;;;1.42;;
43146;SDS011;28752;48.266;7.402;2023-09-18T14:04:52;2.78;;;1.15;;
43146;SDS011;28752;48.266;7.402;2023-09-18T14:07:18;4.95;;;1.27;;
43146;SDS011;28752;48.266;7.402;2023-09-18T14:09:43;4.00;;;1.23;;
43146;SDS011;28752;48.266;7.402;2023-09-18T14:12:11;3.78;;;1.40;;
43146;SDS011;28752;48.266;7.402;2023-09-18T14:14:36;3.15;;;1.10;;
43146;SDS011;28752;48.266;7.402;2023-09-18T14:17:02;4.07;;;1.10;;
43146;SDS011;28752;48.266;7.402;2023-09-18T14:19:30;2.47;;;1.10;;
43146;SDS011;28752;48.266;7.402;2023-09-18T14:21:56;4.20;;;1.00;;
43146;SDS011;28752;48.266;7.402;2023-09-18T14:24:21;3.47;;;1.10;;
43146;SDS011;28752;48.266;7.402;2023-09-18T14:26:50;4.70;;;1.45;;
43146;SDS011;28752;48.266;7.402;2023-09-18T14:29:16;3.38;;;1.20;;
43146;SDS011;28752;48.266;7.402;2023-09-18T14:31:42;5.90;;;1.00;;
43146;SDS011;28752;48.266;7.402;2023-09-18T14:34:07;3.50;;;1.25;;
43146;SDS011;28752;48.266;7.402;2023-09-18T14:36:33;3.08;;;1.13;;
43146;SDS011;28752;48.266;7.402;2023-09-18T14:39:02;3.30;;;1.05;;
43146;SDS011;28752;48.266;7.402;2023-09-18T14:41:28;4.20;;;1.05;;
43146;SDS011;28752;48.266;7.402;2023-09-18T14:43:55;4.15;;;1.40;;
43146;SDS011;28752;48.266;7.402;2023-09-18T14:46:22;5.53;;;1.27;;
43146;SDS011;28752;48.266;7.402;2023-09-18T14:48:48;3.35;;;1.10;;
43146;SDS011;28752;48.266;7.402;2023-09-18T14:51:13;7.28;;;1.38;;
43146;SDS011;28752;48.266;7.402;2023-09-18T14:53:39;4.27;;;1.37;;
43146;SDS011;28752;48.266;7.402;2023-09-18T14:56:04;4.95;;;1.38;;
43146;SDS011;28752;48.266;7.402;2023-09-18T14:58:29;5.30;;;1.20;;
43146;SDS011;28752;48.266;7.402;2023-09-18T15:00:56;3.50;;;1.25;;
43146;SDS011;28752;48.266;7.402;2023-09-18T15:03:22;3.70;;;1.10;;
43146;SDS011;28752;48.266;7.402;2023-09-18T15:05:51;5.10;;;1.50;;
43146;SDS011;28752;48.266;7.402;2023-09-18T15:08:17;4.70;;;1.75;;
43146;SDS011;28752;48.266;7.402;2023-09-18T15:10:44;6.07;;;1.17;;
43146;SDS011;28752;48.266;7.402;2023-09-18T15:15:35;4.17;;;1.17;;
43146;SDS011;28752;48.266;7.402;2023-09-18T15:18:01;4.50;;;1.30;;
43146;SDS011;28752;48.266;7.402;2023-09-18T15:20:26;5.40;;;1.45;;
43146;SDS011;28752;48.266;7.402;2023-09-18T15:22:52;3.67;;;1.27;;
43146;SDS011;28752;48.266;7.402;2023-09-18T15:25:17;3.28;;;1.25;;
43146;SDS011;28752;48.266;7.402;2023-09-18T15:27:42;4.47;;;1.35;;
43146;SDS011;28752;48.266;7.402;2023-09-18T15:32:45;5.18;;;1.20;;
43146;SDS011;28752;48.266;7.402;2023-09-18T15:35:15;4.43;;;1.20;;
43146;SDS011;28752;48.266;7.402;2023-09-18T15:40:07;4.60;;;1.40;;
43146;SDS011;28752;48.266;7.402;2023-09-18T15:42:34;3.47;;;1.25;;
43146;SDS011;28752;48.266;7.402;2023-09-18T15:45:00;3.42;;;1.30;;
43146;SDS011;28752;48.266;7.402;2023-09-18T15:47:26;2.72;;;1.23;;
43146;SDS011;28752;48.266;7.402;2023-09-18T15:49:51;3.85;;;1.33;;
43146;SDS011;28752;48.266;7.402;2023-09-18T15:52:16;3.33;;;1.25;;